createdAt,value
2018-05-16T00:00:52.912Z,87.17
2018-05-16T00:01:52.915Z,86.88
2018-05-16T00:02:52.913Z,86.31
2018-05-16T00:03:52.910Z,86.41
2018-05-16T00:04:52.909Z,86.21
2018-05-16T00:05:52.901Z,86.21
2018-05-16T00:06:52.900Z,86.12
2018-05-16T00:07:52.900Z,86.21
2018-05-16T00:08:52.898Z,86.88
2018-05-16T00:09:52.898Z,87.08
2018-05-16T00:10:52.896Z,86.88
2018-05-16T00:11:52.896Z,86.41
2018-05-16T00:12:52.893Z,86.31
2018-05-16T00:13:52.887Z,86.41
2018-05-16T00:14:52.885Z,86.21
2018-05-16T00:15:52.889Z,86.31
2018-05-16T00:16:52.886Z,85.93
2018-05-16T00:17:52.879Z,86.02
2018-05-16T00:18:52.878Z,85.64
2018-05-16T00:19:52.876Z,85.64
2018-05-16T00:20:52.876Z,85.35
2018-05-16T00:21:52.877Z,85.25
2018-05-16T00:22:52.874Z,85.25
2018-05-16T00:23:52.877Z,85.35
2018-05-16T00:24:52.871Z,85.06
2018-05-16T00:25:52.864Z,85.35
2018-05-16T00:26:52.862Z,84.97
2018-05-16T00:27:52.859Z,84.88
2018-05-16T00:28:52.859Z,84.58
2018-05-16T00:29:52.861Z,84.30
2018-05-16T00:30:52.859Z,84.49
2018-05-16T00:31:52.853Z,84.20
2018-05-16T00:32:52.852Z,84.11
2018-05-16T00:33:52.855Z,84.20
2018-05-16T00:34:52.851Z,84.30
2018-05-16T00:35:52.850Z,83.86
2018-05-16T00:36:52.849Z,83.19
2018-05-16T00:37:52.842Z,83.48
2018-05-16T00:38:52.841Z,82.90
2018-05-16T00:39:52.838Z,83.19
2018-05-16T00:40:52.840Z,83.58
2018-05-16T00:41:52.841Z,83.48
2018-05-16T00:42:52.837Z,83.00
2018-05-16T00:43:52.835Z,83.67
2018-05-16T00:44:52.836Z,83.86
2018-05-16T00:45:52.828Z,82.32
2018-05-16T00:46:52.825Z,82.42
2018-05-16T00:47:52.828Z,82.46
2018-05-16T00:48:52.828Z,82.65
2018-05-16T00:49:52.821Z,82.37
2018-05-16T00:50:52.820Z,82.37
2018-05-16T00:51:52.817Z,82.94
2018-05-16T00:52:52.817Z,82.75
2018-05-16T00:53:52.820Z,82.65
2018-05-16T00:54:52.818Z,83.23
2018-05-16T00:55:52.820Z,83.04
2018-05-16T00:56:52.816Z,83.14
2018-05-16T00:57:52.808Z,82.56
2018-05-16T00:58:52.810Z,82.56
2018-05-16T00:59:52.804Z,82.46
2018-05-16T01:00:52.803Z,82.65
2018-05-16T01:01:52.807Z,82.85
2018-05-16T01:02:52.804Z,82.56
2018-05-16T01:03:52.799Z,82.37
2018-05-16T01:04:52.797Z,82.46
2018-05-16T01:05:52.800Z,82.08
2018-05-16T01:06:52.798Z,81.98
2018-05-16T01:07:52.798Z,81.22
2018-05-16T01:08:52.796Z,81.22
2018-05-16T01:09:52.790Z,81.31
2018-05-16T01:10:52.790Z,81.02
2018-05-16T01:11:52.788Z,81.12
2018-05-16T01:12:52.787Z,81.60
2018-05-16T01:13:52.789Z,80.93
2018-05-16T01:14:52.786Z,80.74
2018-05-16T01:15:52.786Z,80.35
2018-05-16T01:16:52.785Z,80.11
2018-05-16T01:17:52.783Z,80.07
2018-05-16T01:18:52.776Z,80.07
2018-05-16T01:19:52.782Z,80.20
2018-05-16T01:20:52.779Z,79.53
2018-05-16T01:21:52.772Z,79.82
2018-05-16T01:22:52.770Z,80.11
2018-05-16T01:23:52.772Z,80.58
2018-05-16T01:24:52.769Z,80.64
2018-05-16T01:25:52.776Z,79.82
2018-05-16T01:26:52.770Z,79.82
2018-05-16T01:27:52.769Z,79.72
2018-05-16T01:28:52.767Z,79.44
2018-05-16T01:29:52.761Z,80.11
2018-05-16T01:30:52.759Z,80.30
2018-05-16T01:31:52.758Z,79.53
2018-05-16T01:32:52.757Z,79.63
2018-05-16T01:33:52.760Z,79.05
2018-05-16T01:34:52.758Z,79.34
2018-05-16T01:35:52.752Z,79.05
2018-05-16T01:36:52.751Z,79.91
2018-05-16T01:37:52.755Z,79.24
2018-05-16T01:38:52.753Z,79.63
2018-05-16T01:39:52.801Z,79.44
2018-05-16T01:40:52.749Z,79.34
2018-05-16T01:41:52.744Z,78.00
2018-05-16T01:42:52.741Z,77.13
2018-05-16T01:43:52.741Z,77.75
2018-05-16T01:44:52.740Z,78.13
2018-05-16T01:45:52.744Z,77.75
2018-05-16T01:46:52.740Z,78.47
2018-05-16T01:47:52.740Z,78.42
2018-05-16T01:48:52.739Z,78.19
2018-05-16T01:49:52.735Z,78.19
2018-05-16T01:50:52.731Z,78.57
2018-05-16T01:51:52.734Z,78.61
2018-05-16T01:52:52.732Z,78.96
2018-05-16T01:53:52.725Z,79.14
2018-05-16T01:54:52.723Z,79.82
2018-05-16T01:55:52.722Z,79.34
2018-05-16T01:56:52.720Z,79.34
2018-05-16T01:57:52.722Z,79.44
2018-05-16T01:58:52.720Z,79.53
2018-05-16T01:59:52.719Z,79.05
2018-05-16T02:00:52.716Z,79.72
2018-05-16T02:01:52.710Z,79.44
2018-05-16T02:02:52.707Z,79.44
2018-05-16T02:03:52.705Z,79.14
2018-05-16T02:04:52.704Z,79.14
2018-05-16T02:05:52.708Z,79.53
2018-05-16T02:06:52.704Z,79.24
2018-05-16T02:07:52.698Z,79.05
2018-05-16T02:08:52.695Z,79.14
2018-05-16T02:09:52.699Z,78.96
2018-05-16T02:10:52.696Z,78.96
2018-05-16T02:11:52.693Z,78.77
2018-05-16T02:12:52.692Z,78.67
2018-05-16T02:13:52.693Z,78.57
2018-05-16T02:14:52.683Z,79.05
2018-05-16T02:15:52.682Z,79.05
2018-05-16T02:16:52.679Z,78.67
2018-05-16T02:17:52.682Z,78.67
2018-05-16T02:18:52.679Z,79.24
2018-05-16T02:19:52.680Z,78.86
2018-05-16T02:20:52.678Z,78.47
2018-05-16T02:21:52.671Z,78.86
2018-05-16T02:22:52.669Z,78.77
2018-05-16T02:23:52.675Z,78.67
2018-05-16T02:24:52.670Z,79.34
2018-05-16T02:25:52.664Z,78.67
2018-05-16T02:26:52.660Z,78.47
2018-05-16T02:27:52.658Z,78.47
2018-05-16T02:28:52.657Z,78.28
2018-05-16T02:29:52.661Z,78.38
2018-05-16T02:30:52.659Z,78.19
2018-05-16T02:31:52.655Z,78.28
2018-05-16T02:32:52.654Z,78.47
2018-05-16T02:33:52.649Z,78.57
2018-05-16T02:34:52.646Z,78.38
2018-05-16T02:35:52.646Z,78.57
2018-05-16T02:36:52.643Z,78.67
2018-05-16T02:37:52.650Z,78.57
2018-05-16T02:38:52.643Z,78.67
2018-05-16T02:39:52.637Z,79.14
2018-05-16T02:40:52.635Z,79.05
2018-05-16T02:41:52.641Z,78.96
2018-05-16T02:42:52.635Z,79.14
2018-05-16T02:43:52.642Z,78.96
2018-05-16T02:44:52.633Z,79.24
2018-05-16T02:45:52.630Z,79.63
2018-05-16T02:46:52.624Z,79.63
2018-05-16T02:47:52.623Z,81.45
2018-05-16T02:48:52.621Z,82.03
2018-05-16T02:49:52.625Z,82.41
2018-05-16T02:50:52.625Z,82.60
2018-05-16T02:51:52.619Z,83.85
2018-05-16T02:52:52.618Z,83.85
2018-05-16T02:53:52.612Z,83.18
2018-05-16T02:54:52.610Z,83.47
2018-05-16T02:55:52.613Z,83.56
2018-05-16T02:56:52.611Z,83.37
2018-05-16T02:57:52.612Z,83.47
2018-05-16T02:58:52.603Z,84.14
2018-05-16T02:59:52.602Z,83.37
2018-05-16T03:00:52.601Z,83.85
2018-05-16T03:01:52.603Z,84.52
2018-05-16T03:02:52.601Z,83.52
2018-05-16T03:03:52.601Z,83.18
2018-05-16T03:04:52.600Z,83.37
2018-05-16T03:05:52.593Z,83.27
2018-05-16T03:06:52.591Z,83.81
2018-05-16T03:07:52.589Z,84.19
2018-05-16T03:08:52.588Z,84.67
2018-05-16T03:09:52.592Z,84.48
2018-05-16T03:10:52.588Z,84.77
2018-05-16T03:11:52.582Z,85.44
2018-05-16T03:12:52.589Z,85.72
2018-05-16T03:13:52.585Z,86.11
2018-05-16T03:14:52.581Z,85.63
2018-05-16T03:15:52.581Z,86.01
2018-05-16T03:16:52.587Z,85.72
2018-05-16T03:17:52.578Z,84.95
2018-05-16T03:18:52.576Z,84.67
2018-05-16T03:19:52.571Z,84.38
2018-05-16T03:20:52.567Z,85.15
2018-05-16T03:21:52.572Z,86.01
2018-05-16T03:22:52.569Z,86.21
2018-05-16T03:23:52.569Z,86.49
2018-05-16T03:24:52.566Z,86.88
2018-05-16T03:25:52.564Z,86.78
2018-05-16T03:26:52.559Z,86.58
2018-05-16T03:27:52.561Z,86.40
2018-05-16T03:28:52.560Z,86.11
2018-05-16T03:29:52.554Z,86.88
2018-05-16T03:30:52.553Z,87.16
2018-05-16T03:31:52.551Z,87.84
2018-05-16T03:32:52.551Z,87.55
2018-05-16T03:33:52.554Z,88.41
2018-05-16T03:34:52.552Z,87.35
2018-05-16T03:35:52.550Z,87.93
2018-05-16T03:36:52.548Z,87.21
2018-05-16T03:37:52.542Z,87.31
2018-05-16T03:38:52.539Z,88.12
2018-05-16T03:39:52.538Z,88.08
2018-05-16T03:40:52.535Z,88.37
2018-05-16T03:41:52.539Z,88.17
2018-05-16T03:42:52.537Z,87.88
2018-05-16T03:43:52.530Z,87.88
2018-05-16T03:44:52.529Z,87.88
2018-05-16T03:45:52.531Z,87.70
2018-05-16T03:46:52.530Z,88.17
2018-05-16T03:47:52.527Z,89.23
2018-05-16T03:48:52.526Z,88.90
2018-05-16T03:49:52.520Z,89.09
2018-05-16T03:50:52.516Z,89.09
2018-05-16T03:51:52.544Z,89.76
2018-05-16T03:52:52.513Z,90.33
2018-05-16T03:53:52.517Z,90.72
2018-05-16T03:54:52.513Z,90.81
2018-05-16T03:55:52.511Z,90.53
2018-05-16T03:56:52.509Z,90.53
2018-05-16T03:57:52.503Z,90.81
2018-05-16T03:58:52.500Z,91.10
2018-05-16T03:59:52.502Z,90.86
2018-05-16T04:00:52.578Z,91.44
2018-05-16T04:01:52.496Z,91.39
2018-05-16T04:02:52.491Z,91.72
2018-05-16T04:03:52.491Z,91.53
2018-05-16T04:04:52.488Z,91.63
2018-05-16T04:05:52.492Z,91.44
2018-05-16T04:06:52.487Z,91.72
2018-05-16T04:07:52.485Z,91.58
2018-05-16T04:08:52.485Z,91.72
2018-05-16T04:09:52.477Z,92.21
2018-05-16T04:10:52.473Z,92.97
2018-05-16T04:11:52.471Z,92.49
2018-05-16T04:12:52.469Z,91.44
2018-05-16T04:13:52.471Z,91.77
2018-05-16T04:14:52.468Z,91.44
2018-05-16T04:15:52.470Z,92.01
2018-05-16T04:16:52.460Z,92.35
2018-05-16T04:17:52.462Z,92.30
2018-05-16T04:18:52.459Z,92.11
2018-05-16T04:19:52.457Z,92.58
2018-05-16T04:20:52.457Z,92.25
2018-05-16T04:21:52.449Z,92.30
2018-05-16T04:22:52.444Z,92.73
2018-05-16T04:23:52.443Z,92.30
2018-05-16T04:24:52.449Z,91.72
2018-05-16T04:25:52.444Z,92.58
2018-05-16T04:26:52.441Z,92.06
2018-05-16T04:27:52.437Z,91.96
2018-05-16T04:28:52.511Z,92.15
2018-05-16T04:29:52.428Z,92.15
2018-05-16T04:30:52.425Z,91.77
2018-05-16T04:31:52.428Z,91.67
2018-05-16T04:32:52.426Z,91.58
2018-05-16T04:33:52.419Z,91.86
2018-05-16T04:34:52.417Z,90.53
2018-05-16T04:35:52.416Z,90.91
2018-05-16T04:36:52.413Z,90.81
2018-05-16T04:37:52.417Z,90.43
2018-05-16T04:38:52.414Z,90.67
2018-05-16T04:39:52.409Z,90.28
2018-05-16T04:40:52.407Z,90.28
2018-05-16T04:41:52.459Z,90.57
2018-05-16T04:42:52.399Z,90.47
2018-05-16T04:43:52.396Z,89.65
2018-05-16T04:44:52.396Z,89.37
2018-05-16T04:45:52.399Z,89.18
2018-05-16T04:46:52.396Z,87.93
2018-05-16T04:47:52.389Z,88.02
2018-05-16T04:48:52.388Z,87.30
2018-05-16T04:49:52.392Z,86.25
2018-05-16T04:50:52.390Z,85.77
2018-05-16T04:51:52.388Z,84.33
2018-05-16T04:52:52.395Z,84.37
2018-05-16T04:53:52.383Z,83.54
2018-05-16T04:54:52.381Z,83.45
2018-05-16T04:55:52.383Z,82.53
2018-05-16T04:56:52.384Z,81.57
2018-05-16T04:57:52.384Z,80.80
2018-05-16T04:58:52.388Z,80.17
2018-05-16T04:59:52.384Z,79.30
2018-05-16T05:00:52.397Z,79.05
2018-05-16T05:01:52.380Z,77.75
2018-05-16T05:02:52.378Z,76.11
2018-05-16T05:03:52.385Z,74.99
2018-05-16T05:04:52.385Z,73.88
2018-05-16T05:05:52.382Z,73.24
2018-05-16T05:06:52.381Z,71.70
2018-05-16T05:07:52.381Z,70.28
2018-05-16T05:08:52.408Z,69.51
2018-05-16T05:09:52.388Z,68.74
2018-05-16T05:10:52.393Z,67.78
2018-05-16T05:11:52.395Z,68.01
2018-05-16T05:12:52.393Z,67.43
2018-05-16T05:13:52.389Z,67.07
2018-05-16T05:14:52.395Z,66.30
2018-05-16T05:15:52.393Z,66.17
2018-05-16T05:16:52.395Z,65.50
2018-05-16T05:17:52.403Z,64.24
2018-05-16T05:18:52.443Z,63.95
2018-05-16T05:19:52.405Z,63.85
2018-05-16T05:20:52.404Z,63.66
2018-05-16T05:21:52.413Z,63.60
2018-05-16T05:22:52.414Z,63.11
2018-05-16T05:23:52.416Z,63.43
2018-05-16T05:24:52.419Z,62.21
2018-05-16T05:25:52.419Z,62.53
2018-05-16T05:26:52.420Z,62.63
2018-05-16T05:27:52.423Z,61.88
2018-05-16T05:28:52.426Z,61.52
2018-05-16T05:29:52.434Z,61.07
2018-05-16T05:30:52.436Z,60.23
2018-05-16T05:31:52.441Z,60.45
2018-05-16T05:32:52.444Z,59.87
2018-05-16T05:33:52.444Z,58.64
2018-05-16T05:34:52.447Z,58.34
2018-05-16T05:35:52.456Z,57.79
2018-05-16T05:36:52.463Z,57.28
2018-05-16T05:37:52.459Z,56.92
2018-05-16T05:38:52.463Z,56.36
2018-05-16T05:39:52.467Z,55.78
2018-05-16T05:40:52.471Z,56.10
2018-05-16T05:41:52.480Z,55.05
2018-05-16T05:42:52.485Z,53.40
2018-05-16T05:43:52.490Z,52.94
2018-05-16T05:44:52.495Z,52.33
2018-05-16T05:45:52.495Z,52.14
2018-05-16T05:46:52.503Z,51.55
2018-05-16T05:47:52.504Z,51.29
2018-05-16T05:48:52.515Z,50.60
2018-05-16T05:49:52.522Z,50.80
2018-05-16T05:50:52.524Z,50.34
2018-05-16T05:51:52.524Z,49.46
2018-05-16T05:52:52.531Z,49.22
2018-05-16T05:53:52.543Z,49.51
2018-05-16T05:54:52.547Z,49.24
2018-05-16T05:55:52.555Z,48.85
2018-05-16T05:56:52.560Z,48.10
2018-05-16T05:57:52.561Z,47.61
2018-05-16T05:58:52.566Z,47.63
2018-05-16T05:59:52.571Z,47.14
2018-05-16T06:00:52.578Z,46.39
2018-05-16T06:01:52.590Z,45.90
2018-05-16T06:02:52.596Z,45.33
2018-05-16T06:03:52.602Z,45.45
2018-05-16T06:04:52.609Z,44.79
2018-05-16T06:05:52.613Z,44.20
2018-05-16T06:06:52.618Z,43.73
2018-05-16T06:07:52.641Z,42.66
2018-05-16T06:08:52.637Z,42.56
2018-05-16T06:09:52.641Z,42.27
2018-05-16T06:10:52.649Z,42.68
2018-05-16T06:11:52.657Z,42.29
2018-05-16T06:12:52.664Z,41.52
2018-05-16T06:13:52.677Z,40.84
2018-05-16T06:14:52.684Z,40.06
2018-05-16T06:15:52.697Z,39.07
2018-05-16T06:16:52.701Z,38.76
2018-05-16T06:17:52.705Z,39.17
2018-05-16T06:18:52.716Z,39.07
2018-05-16T06:19:52.818Z,38.98
2018-05-16T06:20:52.732Z,38.90
2018-05-16T06:21:52.751Z,38.70
2018-05-16T06:22:52.753Z,38.53
2018-05-16T06:23:52.757Z,37.45
2018-05-16T06:24:52.766Z,38.28
2018-05-16T06:25:52.780Z,38.75
2018-05-16T06:26:52.789Z,38.84
2018-05-16T06:27:52.800Z,38.30
2018-05-16T06:28:52.809Z,38.96
2018-05-16T06:29:52.813Z,39.96
2018-05-16T06:30:52.822Z,39.49
2018-05-16T06:31:52.833Z,39.20
2018-05-16T06:32:52.842Z,38.63
2018-05-16T06:33:52.858Z,37.87
2018-05-16T06:34:52.867Z,37.41
2018-05-16T06:35:52.876Z,37.59
2018-05-16T06:36:52.885Z,37.18
2018-05-16T06:37:52.893Z,37.67
2018-05-16T06:38:52.901Z,37.37
2018-05-16T06:39:52.915Z,38.32
2018-05-16T06:40:52.926Z,38.43
2018-05-16T06:41:52.932Z,40.00
2018-05-16T06:42:52.942Z,40.01
2018-05-16T06:43:52.953Z,39.84
2018-05-16T06:44:52.963Z,39.18
2018-05-16T06:45:52.984Z,39.02
2018-05-16T06:46:52.989Z,38.45
2018-05-16T06:47:52.998Z,37.49
2018-05-16T06:48:53.017Z,36.72
2018-05-16T06:49:53.019Z,35.86
2018-05-16T06:50:53.026Z,35.68
2018-05-16T06:51:53.037Z,35.39
2018-05-16T06:52:53.052Z,34.42
2018-05-16T06:53:53.068Z,34.54
2018-05-16T06:54:53.075Z,34.75
2018-05-16T06:55:53.082Z,34.87
2018-05-16T06:56:53.097Z,34.10
2018-05-16T06:57:53.110Z,33.10
2018-05-16T06:58:53.124Z,33.29
2018-05-16T06:59:53.137Z,33.13
2018-05-16T07:00:53.146Z,33.23
2018-05-16T07:01:53.152Z,32.15
2018-05-16T07:02:53.163Z,31.95
2018-05-16T07:03:53.178Z,31.85
2018-05-16T07:04:53.188Z,31.56
2018-05-16T07:05:53.206Z,31.85
2018-05-16T07:06:53.217Z,32.92
2018-05-16T07:07:53.231Z,32.34
2018-05-16T07:08:53.244Z,32.34
2018-05-16T07:09:53.251Z,32.45
2018-05-16T07:10:53.263Z,31.97
2018-05-16T07:11:53.282Z,31.88
2018-05-16T07:12:53.303Z,31.80
2018-05-16T07:13:53.306Z,31.62
2018-05-16T07:14:53.317Z,30.85
2018-05-16T07:15:53.332Z,30.55
2018-05-16T07:16:53.342Z,30.06
2018-05-16T07:17:53.360Z,29.66
2018-05-16T07:18:53.375Z,29.86
2018-05-16T07:19:53.386Z,29.57
2018-05-16T07:20:53.400Z,29.66
2018-05-16T07:21:53.410Z,29.76
2018-05-16T07:22:53.478Z,29.27
2018-05-16T07:23:53.438Z,29.35
2018-05-16T07:24:53.451Z,29.80
2018-05-16T07:25:53.471Z,29.58
2018-05-16T07:26:53.485Z,29.96
2018-05-16T07:27:53.497Z,30.42
2018-05-16T07:28:53.507Z,31.50
2018-05-16T07:29:53.533Z,31.77
2018-05-16T07:30:53.539Z,32.66
2018-05-16T07:31:53.554Z,33.14
2018-05-16T07:32:53.571Z,33.15
2018-05-16T07:33:53.578Z,33.17
2018-05-16T07:34:53.591Z,33.20
2018-05-16T07:35:53.606Z,32.26
2018-05-16T07:36:53.620Z,31.69
2018-05-16T07:37:53.638Z,31.09
2018-05-16T07:38:53.652Z,31.57
2018-05-16T07:39:53.667Z,31.18
2018-05-16T07:40:53.681Z,30.98
2018-05-16T07:41:53.692Z,30.94
2018-05-16T07:42:53.705Z,31.51
2018-05-16T07:43:53.725Z,31.89
2018-05-16T07:44:53.741Z,31.67
2018-05-16T07:45:53.750Z,32.28
2018-05-16T07:46:53.764Z,32.71
2018-05-16T07:47:53.778Z,31.56
2018-05-16T07:48:53.794Z,31.04
2018-05-16T07:49:53.813Z,31.36
2018-05-16T07:50:53.829Z,30.38
2018-05-16T07:51:53.838Z,30.40
2018-05-16T07:52:53.854Z,30.00
2018-05-16T07:53:53.873Z,30.65
2018-05-16T07:54:53.889Z,31.54
2018-05-16T07:55:53.967Z,31.69
2018-05-16T07:56:53.919Z,31.11
2018-05-16T07:57:53.929Z,29.74
2018-05-16T07:58:53.943Z,29.65
2018-05-16T07:59:53.964Z,29.79
2018-05-16T08:00:53.980Z,31.52
2018-05-16T08:01:53.991Z,32.45
2018-05-16T08:02:54.006Z,32.79
2018-05-16T08:03:54.028Z,31.67
2018-05-16T08:04:54.042Z,31.23
2018-05-16T08:05:54.059Z,29.60
2018-05-16T08:06:54.073Z,29.24
2018-05-16T08:07:54.090Z,28.17
2018-05-16T08:08:54.106Z,26.66
2018-05-16T08:09:54.117Z,27.06
2018-05-16T08:10:54.133Z,27.36
2018-05-16T08:11:54.153Z,27.92
2018-05-16T08:12:54.165Z,29.10
2018-05-16T08:13:54.186Z,30.14
2018-05-16T08:14:54.202Z,31.50
2018-05-16T08:15:54.213Z,31.89
2018-05-16T08:16:54.230Z,32.17
2018-05-16T08:17:54.251Z,31.89
2018-05-16T08:18:54.264Z,32.78
2018-05-16T08:19:54.289Z,32.18
2018-05-16T08:20:54.295Z,32.79
2018-05-16T08:21:54.365Z,33.98
2018-05-16T08:22:54.321Z,33.90
2018-05-16T08:23:54.337Z,34.18
2018-05-16T08:24:54.358Z,34.01
2018-05-16T08:25:54.375Z,34.21
2018-05-16T08:26:54.384Z,33.80
2018-05-16T08:27:54.398Z,33.59
2018-05-16T08:28:54.413Z,33.69
2018-05-16T08:29:54.425Z,34.14
2018-05-16T08:30:54.443Z,34.42
2018-05-16T08:31:54.456Z,35.16
2018-05-16T08:32:54.469Z,36.76
2018-05-16T08:33:54.479Z,37.45
2018-05-16T08:34:54.492Z,38.59
2018-05-16T08:35:54.506Z,38.57
2018-05-16T08:36:54.518Z,39.06
2018-05-16T08:37:54.538Z,40.23
2018-05-16T08:38:54.549Z,40.97
2018-05-16T08:39:54.560Z,41.38
2018-05-16T08:40:54.574Z,40.62
2018-05-16T08:41:54.580Z,40.83
2018-05-16T08:42:54.637Z,41.07
2018-05-16T08:43:54.603Z,40.17
2018-05-16T08:44:54.615Z,40.09
2018-05-16T08:45:54.630Z,38.73
2018-05-16T08:46:54.640Z,38.55
2018-05-16T08:47:54.648Z,38.55
2018-05-16T08:48:54.659Z,38.55
2018-05-16T08:49:54.680Z,38.59
2018-05-16T08:50:54.686Z,39.61
2018-05-16T08:51:54.701Z,41.03
2018-05-16T08:52:54.713Z,42.58
2018-05-16T08:53:54.717Z,42.87
2018-05-16T08:54:54.726Z,43.32
2018-05-16T08:55:54.738Z,44.19
2018-05-16T08:56:54.753Z,45.11
2018-05-16T08:57:54.764Z,45.11
2018-05-16T08:58:54.773Z,44.49
2018-05-16T08:59:54.785Z,44.09
2018-05-16T09:00:54.795Z,42.36
2018-05-16T09:01:54.800Z,40.76
2018-05-16T09:02:54.810Z,38.55
2018-05-16T09:03:54.826Z,37.27
2018-05-16T09:04:54.839Z,36.88
2018-05-16T09:05:54.842Z,38.59
2018-05-16T09:06:54.852Z,39.16
2018-05-16T09:07:54.863Z,40.42
2018-05-16T09:08:54.874Z,41.20
2018-05-16T09:09:54.889Z,41.36
2018-05-16T09:10:54.898Z,41.94
2018-05-16T09:11:54.909Z,42.85
2018-05-16T09:12:54.919Z,42.74
2018-05-16T09:13:54.927Z,43.63
2018-05-16T09:14:54.934Z,45.17
2018-05-16T09:15:54.953Z,44.95
2018-05-16T09:16:54.954Z,45.04
2018-05-16T09:17:54.970Z,46.31
2018-05-16T09:18:54.977Z,45.99
2018-05-16T09:19:54.982Z,46.28
2018-05-16T09:20:54.991Z,46.86
2018-05-16T09:21:55.006Z,47.35
2018-05-16T09:22:55.015Z,48.13
2018-05-16T09:23:55.025Z,48.15
2018-05-16T09:24:55.045Z,48.44
2018-05-16T09:25:55.033Z,48.83
2018-05-16T09:26:55.040Z,49.02
2018-05-16T09:27:55.051Z,49.32
2018-05-16T09:28:55.056Z,49.39
2018-05-16T09:29:55.070Z,49.99
2018-05-16T09:30:55.078Z,49.10
2018-05-16T09:31:55.086Z,47.00
2018-05-16T09:32:55.093Z,45.69
2018-05-16T09:33:55.098Z,45.21
2018-05-16T09:34:55.108Z,45.35
2018-05-16T09:35:55.120Z,44.48
2018-05-16T09:36:55.126Z,43.89
2018-05-16T09:37:55.131Z,43.81
2018-05-16T09:38:55.137Z,42.91
2018-05-16T09:39:55.145Z,42.94
2018-05-16T09:40:55.154Z,42.80
2018-05-16T09:41:55.169Z,42.85
2018-05-16T09:42:55.176Z,43.22
2018-05-16T09:43:55.186Z,44.21
2018-05-16T09:44:55.194Z,44.53
2018-05-16T09:45:55.219Z,44.82
2018-05-16T09:46:55.207Z,44.82
2018-05-16T09:47:55.217Z,44.62
2018-05-16T09:48:55.233Z,45.04
2018-05-16T09:49:55.243Z,44.16
2018-05-16T09:50:55.249Z,43.77
2018-05-16T09:51:55.254Z,44.13
2018-05-16T09:52:55.262Z,42.69
2018-05-16T09:53:55.278Z,42.57
2018-05-16T09:54:55.285Z,41.61
2018-05-16T09:55:55.295Z,41.36
2018-05-16T09:56:55.304Z,40.60
2018-05-16T09:57:55.310Z,39.26
2018-05-16T09:58:55.319Z,38.77
2018-05-16T09:59:55.329Z,38.14
2018-05-16T10:00:55.340Z,38.43
2018-05-16T10:01:55.357Z,38.43
2018-05-16T10:02:55.370Z,39.02
2018-05-16T10:03:55.377Z,39.10
2018-05-16T10:04:55.388Z,38.89
2018-05-16T10:05:55.395Z,39.18
2018-05-16T10:06:55.406Z,39.18
2018-05-16T10:07:55.422Z,39.96
2018-05-16T10:08:55.433Z,40.13
2018-05-16T10:09:55.511Z,40.23
2018-05-16T10:10:55.450Z,40.33
2018-05-16T10:11:55.461Z,40.89
2018-05-16T10:12:55.474Z,40.72
2018-05-16T10:13:55.490Z,41.99
2018-05-16T10:14:55.500Z,41.61
2018-05-16T10:15:55.511Z,41.13
2018-05-16T10:16:55.523Z,40.13
2018-05-16T10:17:55.527Z,40.08
2018-05-16T10:18:55.537Z,40.06
2018-05-16T10:19:55.549Z,40.45
2018-05-16T10:20:55.558Z,40.47
2018-05-16T10:21:55.573Z,39.88
2018-05-16T10:22:55.582Z,39.98
2018-05-16T10:23:55.589Z,40.76
2018-05-16T10:24:55.664Z,40.56
2018-05-16T10:25:55.615Z,39.96
2018-05-16T10:26:55.625Z,40.01
2018-05-16T10:27:55.636Z,40.75
2018-05-16T10:28:55.649Z,40.93
2018-05-16T10:29:55.657Z,41.93
2018-05-16T10:30:55.663Z,41.55
2018-05-16T10:31:55.673Z,41.36
2018-05-16T10:32:55.684Z,41.47
2018-05-16T10:33:55.700Z,42.40
2018-05-16T10:34:55.714Z,43.60
2018-05-16T10:35:55.717Z,46.31
2018-05-16T10:36:55.728Z,47.30
2018-05-16T10:37:55.733Z,47.35
2018-05-16T10:38:55.741Z,46.55
2018-05-16T10:39:55.755Z,46.28
2018-05-16T10:40:55.768Z,46.86
2018-05-16T10:41:55.770Z,46.84
2018-05-16T10:42:55.780Z,47.45
2018-05-16T10:43:55.787Z,47.66
2018-05-16T10:44:55.795Z,48.15
2018-05-16T10:45:55.809Z,46.77
2018-05-16T10:46:55.816Z,46.77
2018-05-16T10:47:55.824Z,47.20
2018-05-16T10:48:55.834Z,48.44
2018-05-16T10:49:55.837Z,49.22
2018-05-16T10:50:55.843Z,49.19
2018-05-16T10:51:55.852Z,49.85
2018-05-16T10:52:55.859Z,50.52
2018-05-16T10:53:55.871Z,51.10
2018-05-16T10:54:55.878Z,51.20
2018-05-16T10:55:55.881Z,51.42
2018-05-16T10:56:55.888Z,51.52
2018-05-16T10:57:55.899Z,51.62
2018-05-16T10:58:55.904Z,51.04
2018-05-16T10:59:55.912Z,51.54
2018-05-16T11:00:55.920Z,51.06
2018-05-16T11:01:55.921Z,51.62
2018-05-16T11:02:55.926Z,52.46
2018-05-16T11:03:55.933Z,54.30
2018-05-16T11:04:55.939Z,55.66
2018-05-16T11:05:55.951Z,57.30
2018-05-16T11:06:55.955Z,57.95
2018-05-16T11:07:55.961Z,59.11
2018-05-16T11:08:55.969Z,59.82
2018-05-16T11:09:55.969Z,61.36
2018-05-16T11:10:55.973Z,60.59
2018-05-16T11:11:55.988Z,59.66
2018-05-16T11:12:55.989Z,59.46
2018-05-16T11:13:55.992Z,59.78
2018-05-16T11:14:55.995Z,58.52
2018-05-16T11:15:56.000Z,58.52
2018-05-16T11:16:56.005Z,57.55
2018-05-16T11:17:56.015Z,56.29
2018-05-16T11:18:56.020Z,54.74
2018-05-16T11:19:56.075Z,55.32
2018-05-16T11:20:56.030Z,54.38
2018-05-16T11:21:56.031Z,53.80
2018-05-16T11:22:56.038Z,53.58
2018-05-16T11:23:56.042Z,52.58
2018-05-16T11:24:56.047Z,52.95
2018-05-16T11:25:56.059Z,53.14
2018-05-16T11:26:56.063Z,53.72
2018-05-16T11:27:56.066Z,54.11
2018-05-16T11:28:56.068Z,53.53
2018-05-16T11:29:56.080Z,53.69
2018-05-16T11:30:56.084Z,54.63
2018-05-16T11:31:56.095Z,55.21
2018-05-16T11:32:56.094Z,55.34
2018-05-16T11:33:56.095Z,55.51
2018-05-16T11:34:56.099Z,55.51
2018-05-16T11:35:56.105Z,55.60
2018-05-16T11:36:56.111Z,55.79
2018-05-16T11:37:56.123Z,55.92
2018-05-16T11:38:56.127Z,55.31
2018-05-16T11:39:56.133Z,54.63
2018-05-16T11:40:56.138Z,55.11
2018-05-16T11:41:56.137Z,54.66
2018-05-16T11:42:56.142Z,55.11
2018-05-16T11:43:56.471Z,55.57
2018-05-16T11:44:56.157Z,55.67
2018-05-16T11:45:56.159Z,56.57
2018-05-16T11:46:56.163Z,56.11
2018-05-16T11:47:56.167Z,55.63
2018-05-16T11:48:56.232Z,54.66
2018-05-16T11:49:56.182Z,54.57
2018-05-16T11:50:56.186Z,54.59
2018-05-16T11:51:56.192Z,55.27
2018-05-16T11:52:56.197Z,54.79
2018-05-16T11:53:56.198Z,54.33
2018-05-16T11:54:56.202Z,54.11
2018-05-16T11:55:56.207Z,53.72
2018-05-16T11:56:56.213Z,53.81
2018-05-16T11:57:56.223Z,53.91
2018-05-16T11:58:56.231Z,54.25
2018-05-16T11:59:56.228Z,55.21
2018-05-16T12:00:56.235Z,55.89
2018-05-16T12:01:56.244Z,56.67
2018-05-16T12:02:56.348Z,56.67
2018-05-16T12:03:56.252Z,56.57
2018-05-16T12:04:56.257Z,56.30
2018-05-16T12:05:56.261Z,56.21
2018-05-16T12:06:56.262Z,55.53
2018-05-16T12:07:56.267Z,55.53
2018-05-16T12:08:56.272Z,55.53
2018-05-16T12:09:56.282Z,55.92
2018-05-16T12:10:56.286Z,55.34
2018-05-16T12:11:56.292Z,54.95
2018-05-16T12:12:56.296Z,54.95
2018-05-16T12:13:56.296Z,55.41
2018-05-16T12:14:56.315Z,55.65
2018-05-16T12:15:56.309Z,56.99
2018-05-16T12:16:56.316Z,57.64
2018-05-16T12:17:56.313Z,58.73
2018-05-16T12:18:56.317Z,58.35
2018-05-16T12:19:56.322Z,57.93
2018-05-16T12:20:56.326Z,58.32
2018-05-16T12:21:56.334Z,57.64
2018-05-16T12:22:56.337Z,57.64
2018-05-16T12:23:56.343Z,57.74
2018-05-16T12:24:56.346Z,57.93
2018-05-16T12:25:56.346Z,57.06
2018-05-16T12:26:56.350Z,57.06
2018-05-16T12:27:56.353Z,56.84
2018-05-16T12:28:56.388Z,58.19
2018-05-16T12:29:56.366Z,58.12
2018-05-16T12:30:56.369Z,58.00
2018-05-16T12:31:56.368Z,58.19
2018-05-16T12:32:56.371Z,58.22
2018-05-16T12:33:56.382Z,57.93
2018-05-16T12:34:56.383Z,57.74
2018-05-16T12:35:56.387Z,58.35
2018-05-16T12:36:56.391Z,57.77
2018-05-16T12:37:56.390Z,57.09
2018-05-16T12:38:56.392Z,57.19
2018-05-16T12:39:56.395Z,56.93
2018-05-16T12:40:56.400Z,56.93
2018-05-16T12:41:56.408Z,56.45
2018-05-16T12:42:56.414Z,55.29
2018-05-16T12:43:56.417Z,55.77
2018-05-16T12:44:56.418Z,55.70
2018-05-16T12:45:56.419Z,55.79
2018-05-16T12:46:56.421Z,54.53
2018-05-16T12:47:56.430Z,54.66
2018-05-16T12:48:56.434Z,54.17
2018-05-16T12:49:56.433Z,54.17
2018-05-16T12:50:56.435Z,53.63
2018-05-16T12:51:56.439Z,53.09
2018-05-16T12:52:56.444Z,53.19